createdAt,value
2023-03-02T00:01:43.898Z,13.70
2023-03-02T00:04:20.882Z,15.87
2023-03-02T00:06:49.873Z,13.87
2023-03-02T00:09:17.923Z,14.93
2023-03-02T00:11:45.816Z,15.30
2023-03-02T00:14:13.250Z,14.03
2023-03-02T00:16:40.912Z,14.03
2023-03-02T00:19:08.592Z,15.93
2023-03-02T00:21:35.955Z,14.80
2023-03-02T00:24:03.434Z,14.90
2023-03-02T00:26:34.661Z,14.43
2023-03-02T00:29:02.618Z,14.15
2023-03-02T00:31:30.166Z,15.23
2023-03-02T00:33:57.762Z,16.03
2023-03-02T00:36:25.536Z,16.03
2023-03-02T00:38:53.233Z,16.03
2023-03-02T00:41:21.721Z,14.23
2023-03-02T00:43:50.415Z,16.13
2023-03-02T00:46:20.610Z,15.87
2023-03-02T00:48:48.599Z,15.00
2023-03-02T00:51:16.456Z,15.13
2023-03-02T00:53:44.067Z,16.63
2023-03-02T00:56:13.554Z,15.93
2023-03-02T00:58:46.788Z,14.50
2023-03-02T01:01:15.952Z,16.23
2023-03-02T01:03:47.664Z,14.70
2023-03-02T01:06:19.072Z,15.57
2023-03-02T01:08:47.171Z,14.73
2023-03-02T01:11:16.807Z,15.17
2023-03-02T01:13:45.312Z,15.77
2023-03-02T01:16:13.021Z,14.77
2023-03-02T01:18:40.918Z,15.27
2023-03-02T01:21:12.407Z,14.67
2023-03-02T01:23:39.845Z,13.55
2023-03-02T01:26:07.798Z,15.17
2023-03-02T01:28:35.338Z,13.90
2023-03-02T01:31:04.673Z,13.77
2023-03-02T01:33:32.802Z,15.30
2023-03-02T01:36:00.249Z,15.57
2023-03-02T01:38:28.225Z,13.17
2023-03-02T01:40:56.270Z,15.07
2023-03-02T01:43:23.938Z,15.37
2023-03-02T01:46:14.228Z,15.13
2023-03-02T01:49:03.162Z,15.60
2023-03-02T01:51:45.985Z,13.83
2023-03-02T01:54:23.177Z,15.37
2023-03-02T01:56:58.533Z,13.20
2023-03-02T01:59:27.838Z,14.23
2023-03-02T02:01:58.636Z,14.07
2023-03-02T02:04:28.934Z,16.50
2023-03-02T02:07:01.505Z,13.87
2023-03-02T02:09:32.259Z,15.50
2023-03-02T02:11:59.650Z,14.07
2023-03-02T02:14:27.743Z,14.53
2023-03-02T02:16:55.579Z,14.03
2023-03-02T02:20:19.635Z,15.67
2023-03-02T02:23:16.219Z,14.07
2023-03-02T02:26:26.692Z,13.70
2023-03-02T02:29:12.380Z,14.13
2023-03-02T02:32:06.769Z,16.00
2023-03-02T02:34:41.323Z,13.90
2023-03-02T02:37:26.176Z,13.67
2023-03-02T02:39:54.831Z,13.33
2023-03-02T02:42:29.899Z,13.27
2023-03-02T02:45:02.907Z,12.77
2023-03-02T02:47:30.591Z,14.17
2023-03-02T02:49:59.003Z,14.00
2023-03-02T02:52:29.004Z,13.43
2023-03-02T02:54:58.000Z,14.67
2023-03-02T02:57:29.553Z,14.77
2023-03-02T03:00:00.926Z,13.18
2023-03-02T03:02:37.361Z,14.77
2023-03-02T03:05:05.498Z,13.53
2023-03-02T03:07:35.792Z,13.67
2023-03-02T03:10:35.155Z,13.87
2023-03-02T03:13:02.883Z,13.13
2023-03-02T03:15:30.429Z,14.53
2023-03-02T03:17:59.235Z,14.73
2023-03-02T03:20:28.791Z,14.77
2023-03-02T03:22:59.301Z,13.97
2023-03-02T03:25:28.111Z,15.02
2023-03-02T03:27:56.393Z,15.63
2023-03-02T03:30:24.299Z,14.33
2023-03-02T03:32:52.611Z,15.53
2023-03-02T03:35:20.161Z,14.87
2023-03-02T03:37:48.879Z,14.53
2023-03-02T03:40:18.471Z,14.37
2023-03-02T03:42:47.318Z,18.47
2023-03-02T03:45:14.814Z,19.57
2023-03-02T03:47:44.148Z,19.10
2023-03-02T03:50:12.023Z,17.77
2023-03-02T03:52:40.358Z,16.93
2023-03-02T03:55:15.825Z,17.17
2023-03-02T03:57:45.400Z,17.90
2023-03-02T04:00:17.028Z,16.10
2023-03-02T04:02:51.707Z,17.83
2023-03-02T04:05:20.492Z,15.93
2023-03-02T04:07:51.703Z,16.98
2023-03-02T04:10:19.906Z,15.07
2023-03-02T04:12:48.233Z,14.77
2023-03-02T04:15:16.934Z,14.23
2023-03-02T04:17:46.573Z,15.13
2023-03-02T04:20:21.207Z,15.03
2023-03-02T04:22:53.524Z,15.77
2023-03-02T04:25:24.876Z,14.33
2023-03-02T04:27:55.590Z,15.43
2023-03-02T04:30:27.001Z,15.57
2023-03-02T04:32:57.539Z,14.57
2023-03-02T04:35:27.013Z,15.25
2023-03-02T04:37:54.684Z,14.77
2023-03-02T04:40:22.185Z,14.97
2023-03-02T04:42:49.677Z,16.97
2023-03-02T04:45:17.421Z,15.73
2023-03-02T04:47:45.582Z,15.17
2023-03-02T04:50:14.340Z,13.60
2023-03-02T04:52:42.284Z,14.73
2023-03-02T04:55:16.313Z,15.47
2023-03-02T04:57:44.067Z,16.13
2023-03-02T05:00:13.021Z,14.23
2023-03-02T05:02:41.296Z,13.37
2023-03-02T05:05:18.380Z,14.23
2023-03-02T05:07:46.398Z,13.87
2023-03-02T05:10:15.289Z,13.47
2023-03-02T05:12:57.919Z,13.87
2023-03-02T05:15:31.654Z,13.30
2023-03-02T05:17:59.783Z,14.33
2023-03-02T05:20:27.796Z,13.90
2023-03-02T05:22:56.371Z,14.77
2023-03-02T05:25:24.810Z,14.87
2023-03-02T05:27:53.052Z,15.77
2023-03-02T05:30:21.612Z,14.33
2023-03-02T05:32:50.036Z,14.40
2023-03-02T05:35:18.072Z,15.03
2023-03-02T05:37:46.183Z,15.70
2023-03-02T05:40:17.740Z,14.57
2023-03-02T05:42:45.633Z,14.45
2023-03-02T05:45:23.055Z,15.57
2023-03-02T05:47:50.685Z,14.97
2023-03-02T05:50:18.268Z,13.57
2023-03-02T05:52:46.405Z,14.83
2023-03-02T05:55:18.490Z,15.37
2023-03-02T05:57:46.688Z,15.30
2023-03-02T06:00:14.913Z,15.27
2023-03-02T06:02:42.987Z,15.67
2023-03-02T06:05:13.137Z,17.47
2023-03-02T06:10:57.186Z,16.43
2023-03-02T06:13:24.707Z,16.83
2023-03-02T06:15:52.149Z,18.33
2023-03-02T06:18:19.591Z,16.30
2023-03-02T06:20:47.041Z,17.37
2023-03-02T06:23:14.646Z,15.13
2023-03-02T06:25:48.174Z,17.73
2023-03-02T06:28:16.919Z,15.70
2023-03-02T06:30:44.299Z,17.40
2023-03-02T06:33:11.771Z,15.63
2023-03-02T06:35:39.960Z,16.93
2023-03-02T06:38:07.685Z,16.90
2023-03-02T06:40:35.135Z,17.07
2023-03-02T06:43:04.226Z,18.83
2023-03-02T06:45:34.017Z,18.80
2023-03-02T06:48:02.273Z,19.93
2023-03-02T06:50:30.106Z,21.07
2023-03-02T06:53:02.000Z,20.97
2023-03-02T06:57:59.891Z,16.67
2023-03-02T07:00:28.413Z,21.73
2023-03-02T07:03:00.299Z,20.33
2023-03-02T07:07:57.347Z,19.50
2023-03-02T07:10:24.852Z,20.10
2023-03-02T07:12:53.615Z,21.50
2023-03-02T07:15:22.209Z,23.33
2023-03-02T07:17:49.622Z,20.90
2023-03-02T07:20:18.262Z,19.33
2023-03-02T07:22:45.914Z,19.37
2023-03-02T07:25:13.948Z,19.23
2023-03-02T07:27:41.941Z,19.47
2023-03-02T07:30:10.319Z,20.50
2023-03-02T07:32:37.814Z,20.43
2023-03-02T07:35:05.838Z,19.00
2023-03-02T07:37:33.311Z,19.57
2023-03-02T07:40:00.993Z,17.80
2023-03-02T07:42:28.580Z,17.23
2023-03-02T07:44:59.089Z,17.27
2023-03-02T07:47:26.578Z,17.80
2023-03-02T07:49:53.990Z,19.73
2023-03-02T07:52:22.900Z,18.77
2023-03-02T07:54:50.908Z,18.20
2023-03-02T07:57:18.384Z,16.80
2023-03-02T07:59:45.955Z,17.37
2023-03-02T08:02:15.421Z,15.57
2023-03-02T08:04:43.338Z,18.73
2023-03-02T08:07:10.807Z,18.93
2023-03-02T08:09:40.040Z,17.50
2023-03-02T08:12:07.658Z,19.77
2023-03-02T08:14:35.098Z,19.23
2023-03-02T08:17:03.761Z,21.93
2023-03-02T08:19:31.244Z,18.83
2023-03-02T08:21:58.795Z,18.67
2023-03-02T08:24:26.365Z,18.50
2023-03-02T08:26:55.419Z,17.37
2023-03-02T08:29:24.625Z,19.07
2023-03-02T08:31:54.317Z,17.77
2023-03-02T08:34:22.117Z,17.83
2023-03-02T08:36:50.493Z,17.40
2023-03-02T08:39:18.691Z,18.97
2023-03-02T08:41:46.416Z,18.40
2023-03-02T08:44:13.883Z,17.53
2023-03-02T08:46:41.323Z,17.10
2023-03-02T08:49:09.178Z,18.40
2023-03-02T08:51:36.595Z,16.70
2023-03-02T08:54:04.221Z,18.37
2023-03-02T08:56:36.362Z,17.97
2023-03-02T08:59:09.891Z,18.23
2023-03-02T09:01:38.594Z,17.47
2023-03-02T09:04:07.895Z,16.87
2023-03-02T09:06:40.935Z,19.47
2023-03-02T09:09:10.211Z,17.17
2023-03-02T09:11:37.700Z,16.50
2023-03-02T09:14:05.417Z,19.13
2023-03-02T09:16:33.280Z,19.17
2023-03-02T09:19:00.744Z,19.40
2023-03-02T09:21:28.511Z,19.53
2023-03-02T09:23:58.230Z,19.27
2023-03-02T09:26:26.861Z,18.73
2023-03-02T09:28:55.230Z,19.67
2023-03-02T09:31:23.192Z,19.63
2023-03-02T09:33:50.705Z,18.38
2023-03-02T09:36:24.390Z,17.50
2023-03-02T09:38:52.436Z,17.02
2023-03-02T09:42:15.577Z,18.70
2023-03-02T09:45:24.026Z,19.13
2023-03-02T09:48:31.742Z,17.52
2023-03-02T09:51:07.575Z,19.55
2023-03-02T09:53:40.807Z,19.55
2023-03-02T09:56:17.976Z,19.58
2023-03-02T09:58:53.361Z,18.00
2023-03-02T10:01:51.707Z,18.25
2023-03-02T10:04:27.692Z,21.08
2023-03-02T10:07:10.934Z,18.83
2023-03-02T10:09:39.292Z,19.10
2023-03-02T10:12:44.926Z,17.08
2023-03-02T10:15:41.932Z,19.80
2023-03-02T10:18:35.545Z,20.90
2023-03-02T10:21:22.564Z,18.75
2023-03-02T10:24:01.197Z,18.23
2023-03-02T10:26:44.085Z,19.42
2023-03-02T10:29:40.879Z,20.00
2023-03-02T10:32:27.816Z,18.45
2023-03-02T10:34:55.848Z,19.02
2023-03-02T10:37:28.446Z,17.02
2023-03-02T10:39:56.824Z,18.58
2023-03-02T10:42:43.388Z,19.80
2023-03-02T10:45:25.079Z,18.27
2023-03-02T10:48:06.655Z,17.35
2023-03-02T10:50:34.287Z,18.90
2023-03-02T10:53:04.814Z,18.17
2023-03-02T10:55:34.575Z,17.23
2023-03-02T10:58:07.733Z,15.80
2023-03-02T11:00:36.853Z,15.95
2023-03-02T11:03:19.634Z,16.40
2023-03-02T11:05:47.862Z,15.35
2023-03-02T11:08:24.124Z,14.00
2023-03-02T11:11:03.557Z,15.23
2023-03-02T11:13:36.690Z,15.02
2023-03-02T11:16:31.000Z,14.05
2023-03-02T11:19:03.503Z,15.15
2023-03-02T11:22:06.648Z,12.90
2023-03-02T11:24:40.841Z,11.73
2023-03-02T11:27:25.026Z,10.73
2023-03-02T11:30:00.923Z,12.05
2023-03-02T11:32:55.942Z,12.77
2023-03-02T11:35:46.461Z,13.20
2023-03-02T11:38:47.643Z,11.88
2023-03-02T11:41:41.397Z,14.63
2023-03-02T11:44:18.749Z,8.27
2023-03-02T11:46:51.316Z,5.03
2023-03-02T11:49:37.176Z,5.57
2023-03-02T11:52:04.854Z,6.80
2023-03-02T11:54:43.357Z,5.32
2023-03-02T11:57:25.582Z,5.43
2023-03-02T12:02:23.903Z,6.10
2023-03-02T12:05:06.206Z,5.85
2023-03-02T12:10:06.311Z,5.50
2023-03-02T12:12:41.627Z,6.57
2023-03-02T12:15:38.768Z,12.30
2023-03-02T12:18:47.176Z,6.28
2023-03-02T12:21:23.141Z,7.47
2023-03-02T12:23:56.283Z,7.05
2023-03-02T12:26:28.563Z,6.80
2023-03-02T12:29:19.062Z,7.05
2023-03-02T12:31:55.129Z,7.43
2023-03-02T12:34:32.552Z,6.60
2023-03-02T12:37:41.444Z,7.72
2023-03-02T12:40:27.596Z,7.97
2023-03-02T12:43:17.389Z,7.72
2023-03-02T12:46:25.724Z,8.73
2023-03-02T12:49:32.052Z,10.43
2023-03-02T12:52:18.435Z,8.70
2023-03-02T12:54:45.964Z,9.57
2023-03-02T12:57:19.296Z,10.50
2023-03-02T12:59:54.865Z,10.13
2023-03-02T13:02:33.740Z,10.40
2023-03-02T13:05:07.447Z,11.38
2023-03-02T13:07:57.997Z,11.00
2023-03-02T13:11:02.732Z,10.98
2023-03-02T13:13:39.133Z,11.32
2023-03-02T13:16:26.249Z,9.95
2023-03-02T13:18:57.515Z,11.85
2023-03-02T13:21:32.858Z,11.57
2023-03-02T13:24:01.419Z,11.18
2023-03-02T13:26:34.749Z,10.60
2023-03-02T13:29:20.684Z,10.75
2023-03-02T13:31:48.315Z,11.23
2023-03-02T13:34:46.727Z,11.30
2023-03-02T13:37:21.778Z,11.57
2023-03-02T13:39:57.036Z,11.77
2023-03-02T13:42:36.530Z,11.35
2023-03-02T13:45:24.165Z,11.07
2023-03-02T13:47:52.467Z,11.15
2023-03-02T13:50:25.937Z,11.10
2023-03-02T13:52:57.168Z,11.75
2023-03-02T13:55:25.370Z,11.40
2023-03-02T13:57:54.407Z,11.02
2023-03-02T14:00:28.659Z,11.85
2023-03-02T14:02:56.025Z,10.10
2023-03-02T14:05:27.189Z,11.30
2023-03-02T14:07:54.600Z,10.47
2023-03-02T14:10:22.044Z,9.85
2023-03-02T14:13:13.167Z,10.55
2023-03-02T14:15:49.400Z,10.27
2023-03-02T14:18:28.470Z,9.73
2023-03-02T14:20:56.935Z,9.93
2023-03-02T14:23:27.950Z,9.55
2023-03-02T14:25:56.637Z,8.82
2023-03-02T14:28:35.679Z,9.18
2023-03-02T14:31:03.234Z,9.93
2023-03-02T14:33:30.716Z,9.68
2023-03-02T14:35:58.861Z,10.10
2023-03-02T14:38:27.141Z,9.55
2023-03-02T14:40:54.840Z,9.00
2023-03-02T14:43:23.935Z,8.85
2023-03-02T14:45:55.037Z,8.75
2023-03-02T14:48:22.446Z,8.83
2023-03-02T14:50:51.476Z,8.45
2023-03-02T14:53:29.701Z,8.05
2023-03-02T14:55:57.278Z,7.55
2023-03-02T14:58:33.874Z,9.43
2023-03-02T15:01:01.440Z,8.35
2023-03-02T15:03:29.482Z,8.48
2023-03-02T15:06:01.589Z,7.53
2023-03-02T15:08:30.121Z,8.02
2023-03-02T15:10:58.130Z,6.68
2023-03-02T15:13:25.512Z,7.50
2023-03-02T15:15:53.151Z,7.80
2023-03-02T15:18:20.560Z,7.32
2023-03-02T15:20:48.012Z,8.15
2023-03-02T15:23:15.465Z,8.05
2023-03-02T15:25:43.160Z,7.70
2023-03-02T15:28:10.823Z,8.35
2023-03-02T15:30:38.282Z,10.60
2023-03-02T15:33:05.735Z,8.55
2023-03-02T15:35:33.206Z,8.70
2023-03-02T15:38:02.658Z,8.38
2023-03-02T15:40:30.105Z,8.13
2023-03-02T15:42:57.581Z,8.27
2023-03-02T15:45:25.012Z,8.60
2023-03-02T15:47:52.468Z,9.52
2023-03-02T15:50:19.864Z,9.75
2023-03-02T15:52:47.437Z,9.95
2023-03-02T15:55:15.646Z,10.70
2023-03-02T15:57:43.193Z,10.80
2023-03-02T16:00:13.517Z,10.88
2023-03-02T16:02:41.234Z,10.40
2023-03-02T16:05:09.399Z,10.57
2023-03-02T16:07:37.393Z,10.18
2023-03-02T16:10:05.556Z,9.52
2023-03-02T16:12:33.050Z,9.80
2023-03-02T16:15:00.470Z,10.45
2023-03-02T16:17:27.975Z,8.88
2023-03-02T16:19:55.392Z,8.73
2023-03-02T16:22:22.904Z,8.82
2023-03-02T16:24:50.467Z,10.05
2023-03-02T16:27:18.097Z,8.73
2023-03-02T16:29:45.485Z,8.98
2023-03-02T16:32:13.116Z,8.70
2023-03-02T16:34:40.674Z,8.25
2023-03-02T16:37:08.157Z,9.00
2023-03-02T16:39:36.376Z,7.85
2023-03-02T16:42:04.548Z,8.60
2023-03-02T16:44:31.933Z,7.55
2023-03-02T16:46:59.387Z,8.82
2023-03-02T16:49:26.821Z,8.38
2023-03-02T16:51:58.404Z,8.95
2023-03-02T16:54:25.959Z,8.85
2023-03-02T16:56:53.432Z,9.32
2023-03-02T16:59:20.842Z,10.70
2023-03-02T17:01:48.458Z,10.48
2023-03-02T17:04:18.445Z,11.15
2023-03-02T17:06:59.777Z,9.63
2023-03-02T17:09:28.226Z,10.10
2023-03-02T17:11:55.703Z,13.37
2023-03-02T17:14:23.182Z,12.17
2023-03-02T17:16:50.636Z,15.23
2023-03-02T17:19:18.061Z,15.60
2023-03-02T17:21:45.567Z,13.97
2023-03-02T17:24:13.878Z,11.80
2023-03-02T17:26:41.286Z,13.47
2023-03-02T17:29:08.806Z,12.60
2023-03-02T17:31:36.403Z,25.57
2023-03-02T17:34:03.952Z,23.50
2023-03-02T17:36:36.608Z,20.10
2023-03-02T17:39:05.668Z,20.20
2023-03-02T17:41:34.733Z,17.53
2023-03-02T17:44:03.324Z,19.73
2023-03-02T17:46:32.601Z,18.53
2023-03-02T17:49:01.008Z,18.87
2023-03-02T17:51:29.674Z,17.50
2023-03-02T17:53:57.145Z,17.40
2023-03-02T17:56:26.466Z,18.93
2023-03-02T17:58:56.036Z,20.33
2023-03-02T18:01:23.589Z,20.10
2023-03-02T18:03:51.246Z,21.33
2023-03-02T18:06:20.737Z,22.33
2023-03-02T18:08:49.490Z,21.40
2023-03-02T18:11:20.853Z,17.43
2023-03-02T18:13:49.032Z,18.55
2023-03-02T18:16:16.556Z,20.33
2023-03-02T18:18:44.091Z,18.07
2023-03-02T18:21:11.552Z,15.97
2023-03-02T18:23:39.918Z,16.03
2023-03-02T18:26:08.440Z,15.23
2023-03-02T18:28:35.901Z,15.37
2023-03-02T18:31:03.586Z,15.20
2023-03-02T18:33:31.122Z,15.60
2023-03-02T18:36:00.551Z,14.43
2023-03-02T18:38:31.075Z,14.53
2023-03-02T18:41:00.770Z,12.37
2023-03-02T18:43:28.531Z,12.57
2023-03-02T18:45:56.941Z,13.13
2023-03-02T18:48:25.119Z,12.70
2023-03-02T18:50:52.599Z,12.07
2023-03-02T18:53:20.164Z,12.50
2023-03-02T18:55:47.579Z,12.17
2023-03-02T18:58:20.467Z,12.90
2023-03-02T19:00:48.301Z,12.17
2023-03-02T19:03:17.442Z,12.90
2023-03-02T19:05:45.194Z,13.67
2023-03-02T19:08:12.727Z,14.47
2023-03-02T19:10:42.348Z,13.53
2023-03-02T19:13:11.763Z,14.10
2023-03-02T19:15:40.231Z,13.03
2023-03-02T19:18:08.022Z,13.73
2023-03-02T19:20:35.711Z,15.87
2023-03-02T19:23:03.386Z,13.70
2023-03-02T19:25:30.882Z,15.30
2023-03-02T19:27:58.283Z,14.43
2023-03-02T19:30:26.943Z,13.93
2023-03-02T19:32:54.743Z,15.67
2023-03-02T19:35:25.818Z,14.33
2023-03-02T19:37:53.254Z,14.97
2023-03-02T19:40:24.690Z,16.13
2023-03-02T19:42:53.680Z,14.65
2023-03-02T19:45:25.023Z,14.47
2023-03-02T19:47:52.773Z,14.15
2023-03-02T19:50:21.664Z,14.83
2023-03-02T19:52:49.267Z,15.23
2023-03-02T19:55:16.817Z,15.13
2023-03-02T19:57:44.414Z,14.93
2023-03-02T20:00:16.385Z,14.83
2023-03-02T20:02:45.129Z,15.65
2023-03-02T20:05:12.975Z,16.10
2023-03-02T20:07:41.862Z,16.07
2023-03-02T20:10:11.013Z,16.13
2023-03-02T20:12:38.420Z,14.87
2023-03-02T20:15:07.145Z,16.70
2023-03-02T20:17:34.798Z,18.40
2023-03-02T20:20:03.660Z,20.97
2023-03-02T20:22:31.052Z,20.03
2023-03-02T20:24:58.511Z,19.30
2023-03-02T20:27:25.939Z,19.27
2023-03-02T20:29:53.419Z,20.63
2023-03-02T20:32:21.215Z,20.23
2023-03-02T20:34:48.845Z,19.30
2023-03-02T20:37:16.450Z,20.97
2023-03-02T20:39:47.946Z,19.40
2023-03-02T20:42:15.821Z,20.30
2023-03-02T20:44:43.299Z,19.87
2023-03-02T20:47:14.022Z,20.80
2023-03-02T20:49:42.367Z,20.73
2023-03-02T20:52:10.489Z,18.93
2023-03-02T20:54:40.940Z,18.90
2023-03-02T20:57:09.175Z,21.57
2023-03-02T20:59:37.735Z,18.40
2023-03-02T21:02:06.193Z,19.70
2023-03-02T21:04:34.674Z,20.40
2023-03-02T21:07:02.547Z,20.10
2023-03-02T21:09:30.719Z,20.37
2023-03-02T21:11:58.940Z,19.17
2023-03-02T21:14:27.593Z,19.63
2023-03-02T21:16:55.042Z,25.03
2023-03-02T21:19:22.566Z,22.17
2023-03-02T21:21:50.014Z,35.93
2023-03-02T21:24:17.798Z,21.67
2023-03-02T21:26:46.788Z,22.73
2023-03-02T21:29:15.047Z,20.73
2023-03-02T21:31:43.899Z,23.80
2023-03-02T21:34:13.009Z,24.60
2023-03-02T21:36:41.142Z,21.33
2023-03-02T21:39:09.853Z,21.30
2023-03-02T21:41:37.488Z,25.27
2023-03-02T21:44:06.103Z,22.20
2023-03-02T21:46:34.989Z,19.83
2023-03-02T21:49:02.596Z,20.97
2023-03-02T21:51:30.141Z,21.83
2023-03-02T21:53:57.587Z,21.23
2023-03-02T21:56:25.925Z,21.73
2023-03-02T21:58:56.027Z,24.23
2023-03-02T22:01:24.674Z,24.10
2023-03-02T22:03:52.526Z,24.07
2023-03-02T22:06:25.852Z,33.13
2023-03-02T22:08:54.043Z,26.27
2023-03-02T22:11:41.877Z,24.13
2023-03-02T22:14:17.822Z,25.27
2023-03-02T22:16:48.102Z,22.63
2023-03-02T22:19:32.326Z,29.70
2023-03-02T22:22:03.154Z,28.90
2023-03-02T22:24:32.358Z,33.50
2023-03-02T22:27:28.931Z,35.50
2023-03-02T22:30:00.570Z,33.07
2023-03-02T22:32:36.955Z,32.13
2023-03-02T22:35:26.219Z,26.03
2023-03-02T22:38:05.246Z,24.03
2023-03-02T22:40:35.084Z,23.97
2023-03-02T22:43:21.826Z,23.83
2023-03-02T22:45:49.330Z,23.83
2023-03-02T22:48:19.640Z,22.77
2023-03-02T22:50:49.346Z,26.00
2023-03-02T22:53:25.236Z,23.23
2023-03-02T22:56:01.480Z,23.93
2023-03-02T22:58:49.671Z,26.57
2023-03-02T23:01:29.630Z,26.47
2023-03-02T23:04:19.708Z,25.93
2023-03-02T23:06:53.131Z,25.90
2023-03-02T23:09:26.590Z,26.47
2023-03-02T23:11:56.892Z,27.23
2023-03-02T23:14:34.336Z,33.73
2023-03-02T23:17:34.286Z,32.33
2023-03-02T23:20:02.629Z,27.63
2023-03-02T23:22:31.445Z,33.90
2023-03-02T23:24:59.357Z,37.57
2023-03-02T23:27:27.869Z,34.30
2023-03-02T23:29:55.287Z,32.83
2023-03-02T23:32:22.848Z,35.53
2023-03-02T23:34:50.313Z,37.57
2023-03-02T23:37:17.744Z,31.97
2023-03-02T23:39:46.146Z,34.03
2023-03-02T23:42:13.731Z,33.83
2023-03-02T23:44:41.115Z,35.40
2023-03-02T23:47:08.557Z,35.40
2023-03-02T23:49:35.967Z,33.50
2023-03-02T23:52:03.722Z,32.00
2023-03-02T23:54:31.095Z,32.67
2023-03-02T23:56:58.567Z,34.70
2023-03-02T23:59:25.975Z,37.03
